Raisinville Township, Michigan
Current Conditions -  °F | °C
As of 3:53 AM on Wednesday 26 Nov 2014 (Local Time) from KTTF Reporting Station
Overcast Overcast  
Wind Chill: 28°   Ceiling: 2100
Heat Index: 28°   Visibility: 10mi
Dew Point: 21°   Wind: 0mph
Humidity: 74%   Direction: NA
Pressure: 30.18"   Gusts: NA
Location:  41.9088°N, 83.4727°W
Report Text: KTTF 260853Z AUTO 00000KT 10SM OVC021 M02/M06 A3018 RMK AO2
Loading
Personal Weather Stations






























Interactive Weather Map New forecast layout! Learn more

10-Day Weather Forecast

Advertisements
Track Severe Weather on mobile